This is the latest recevied weather packets stored in our database for station/object K8WEH. If no packets are shown the sender has not sent any weather packets the latest 10 day(s).
| Time | Temp. | Humidity | Pressure | Rain* | Wind** | Luminosity | Snow |
|---|---|---|---|---|---|---|---|
| 1777491096 | 15.56° C | 50% | 1010.2 hPa | 0.25 mm | - | - | - |
| 1777490757 | 15.56° C | 50% | 1010.2 hPa | 0.25 mm | - | - | - |
| 1777490457 | 15.56° C | 51% | 1010 hPa | 0.25 mm | - | - | - |
| 1777490161 | 15.56° C | 48% | 1010 hPa | 0.25 mm | - | - | - |
| 1777489857 | 15.56° C | 46% | 1009.8 hPa | 0.25 mm | - | - | - |
| 1777489557 | 15.56° C | 46% | 1009.8 hPa | 0.25 mm | - | - | - |
| 1777489257 | 15.56° C | 48% | 1009.9 hPa | 0.25 mm | - | - | - |
| 1777488956 | 15.56° C | 50% | 1009.9 hPa | 0.25 mm | - | - | - |
| 1777488657 | 15.56° C | 50% | 1009.8 hPa | 0.25 mm | - | - | - |
| 1777488356 | 15.56° C | 51% | 1009.7 hPa | 0.25 mm | - | - | - |
| 1777488056 | 15.56° C | 50% | 1009.7 hPa | 0.25 mm | - | - | - |
| 1777487755 | 15.56° C | 52% | 1009.6 hPa | 0 mm | - | - | - |
| 1777487456 | 15.56° C | 55% | 1009.7 hPa | 0 mm | - | - | - |
| 1777487156 | 15.56° C | 58% | 1009.7 hPa | 0 mm | - | - | - |
| 1777486855 | 15.56° C | 58% | 1009.7 hPa | 0 mm | - | - | - |
| 1777486555 | 15.56° C | 59% | 1009.6 hPa | 0 mm | - | - | - |
| 1777486255 | 16.11° C | 62% | 1009.7 hPa | 0 mm | - | - | - |
| 1777485956 | 16.11° C | 64% | 1009.7 hPa | 0 mm | - | - | - |
| 1777485666 | 16.11° C | 64% | 1009.7 hPa | 0 mm | - | - | - |
| 1777485354 | 16.67° C | 65% | 1009.6 hPa | 0 mm | - | - | - |
| 1777485055 | 17.22° C | 64% | 1009.5 hPa | 0 mm | - | - | - |
| 1777484755 | 17.78° C | 51% | 1009.2 hPa | 0 mm | - | - | - |
| 1777484453 | 17.22° C | 52% | 1009.1 hPa | 0 mm | - | - | - |
| 1777484154 | 17.22° C | 52% | 1009.1 hPa | 0 mm | - | - | - |
| 1777483859 | 17.78° C | 54% | 1009.2 hPa | 0 mm | - | - | - |
* Rain latest hour (hover to see other rain measurements)
** Current wind speed in m/s (hover to see current wind gust speed)